createdAt,value
2018-05-05T00:00:01.733Z,101441.22
2018-05-05T00:01:04.222Z,101446.33
2018-05-05T00:02:06.751Z,101445.10
2018-05-05T00:03:09.241Z,101444.95
2018-05-05T00:04:11.730Z,101444.13
2018-05-05T00:05:14.198Z,101449.64
2018-05-05T00:06:16.790Z,101448.42
2018-05-05T00:07:19.355Z,101446.63
2018-05-05T00:08:21.911Z,101445.00
2018-05-05T00:09:24.401Z,101445.56
2018-05-05T00:10:26.888Z,101445.56
2018-05-05T00:11:29.381Z,101442.16
2018-05-05T00:12:31.912Z,101442.56
2018-05-05T00:13:34.386Z,101447.25
2018-05-05T00:14:36.886Z,101443.28
2018-05-05T00:15:39.376Z,101438.33
2018-05-05T00:16:41.865Z,101442.88
2018-05-05T00:17:44.388Z,101439.45
2018-05-05T00:18:46.873Z,101439.86
2018-05-05T00:19:49.365Z,101450.32
2018-05-05T00:20:51.838Z,101447.16
2018-05-05T00:21:54.340Z,101452.82
2018-05-05T00:22:56.830Z,101452.82
2018-05-05T00:23:59.375Z,101452.57
2018-05-05T00:25:01.868Z,101450.63
2018-05-05T00:26:04.371Z,101449.81
2018-05-05T00:27:06.880Z,101451.76
2018-05-05T00:28:09.391Z,101454.92
2018-05-05T00:29:11.894Z,101452.31
2018-05-05T00:30:14.380Z,101450.94
2018-05-05T00:31:16.855Z,101446.52
2018-05-05T00:32:19.360Z,101444.62
2018-05-05T00:33:21.864Z,101447.91
2018-05-05T00:34:24.379Z,101443.36
2018-05-05T00:35:26.940Z,101441.58
2018-05-05T00:36:29.429Z,101442.14
2018-05-05T00:37:31.910Z,101445.87
2018-05-05T00:38:34.431Z,101439.13
2018-05-05T00:39:36.919Z,101444.23
2018-05-05T00:40:39.414Z,101445.20
2018-05-05T00:41:41.904Z,101441.64
2018-05-05T00:42:44.408Z,101448.67
2018-05-05T00:43:46.895Z,101443.17
2018-05-05T00:44:49.384Z,101445.52
2018-05-05T00:45:51.873Z,101442.36
2018-05-05T00:46:54.342Z,101438.78
2018-05-05T00:47:56.828Z,101444.14
2018-05-05T00:48:59.352Z,101439.19
2018-05-05T00:50:01.837Z,101430.67
2018-05-05T00:51:04.328Z,101439.75
2018-05-05T00:52:06.912Z,101433.43
2018-05-05T00:53:09.306Z,101437.00
2018-05-05T00:54:23.773Z,101436.75
2018-05-05T00:55:26.264Z,101429.05
2018-05-05T00:56:28.750Z,101424.10
2018-05-05T00:57:31.240Z,101433.59
2018-05-05T00:58:33.742Z,101429.61
2018-05-05T00:59:36.252Z,101428.64
2018-05-05T01:00:38.927Z,101428.80
2018-05-05T01:01:41.418Z,101421.66
2018-05-05T01:02:43.929Z,101429.77
2018-05-05T01:03:46.436Z,101432.67
2018-05-05T01:04:48.927Z,101432.67
2018-05-05T01:05:51.424Z,101431.70
2018-05-05T01:06:53.908Z,101431.70
2018-05-05T01:07:56.408Z,101432.67
2018-05-05T01:08:59.000Z,101432.27
2018-05-05T01:10:01.571Z,101432.67
2018-05-05T01:11:04.060Z,101428.14
2018-05-05T01:12:06.571Z,101434.05
2018-05-05T01:13:09.043Z,101427.73
2018-05-05T01:14:11.514Z,101433.23
2018-05-05T01:15:14.044Z,101432.42
2018-05-05T01:16:16.592Z,101428.04
2018-05-05T01:17:19.152Z,101436.15
2018-05-05T01:18:21.733Z,101431.86
2018-05-05T01:19:24.216Z,101435.73
2018-05-05T01:20:26.741Z,101428.29
2018-05-05T01:21:29.236Z,101435.17
2018-05-05T01:22:31.716Z,101433.64
2018-05-05T01:23:34.191Z,101433.23
2018-05-05T01:24:36.672Z,101431.05
2018-05-05T01:25:41.998Z,101434.61
2018-05-05T01:26:44.507Z,101441.50
2018-05-05T01:27:47.024Z,101433.39
2018-05-05T01:28:49.583Z,101435.73
2018-05-05T01:29:52.145Z,101437.11
2018-05-05T01:30:54.645Z,101435.33
2018-05-05T01:31:57.128Z,101429.98
2018-05-05T01:32:59.609Z,101430.39
2018-05-05T01:34:02.115Z,101430.13
2018-05-05T01:35:04.605Z,101436.61
2018-05-05T01:36:07.097Z,101438.40
2018-05-05T01:37:09.599Z,101440.74
2018-05-05T01:38:12.086Z,101440.34
2018-05-05T01:39:14.584Z,101438.95
2018-05-05T01:40:17.077Z,101442.12
2018-05-05T01:41:19.585Z,101443.09
2018-05-05T01:42:22.091Z,101444.72
2018-05-05T01:43:24.580Z,101441.56
2018-05-05T01:44:27.084Z,101440.18
2018-05-05T01:45:29.587Z,101447.06
2018-05-05T01:46:32.117Z,101443.34
2018-05-05T01:47:34.621Z,101442.12
2018-05-05T01:48:37.106Z,101443.50
2018-05-05T01:49:39.584Z,101449.98
2018-05-05T01:50:42.051Z,101451.76
2018-05-05T01:51:44.541Z,101447.63
2018-05-05T01:52:47.034Z,101444.63
2018-05-05T01:53:49.520Z,101447.37
2018-05-05T01:54:51.986Z,101444.22
2018-05-05T01:55:54.468Z,101448.19
2018-05-05T01:56:57.142Z,101448.70
2018-05-05T01:57:59.577Z,101450.02
2018-05-05T01:59:02.090Z,101450.37
2018-05-05T02:00:04.650Z,101452.59
2018-05-05T02:01:07.126Z,101450.73
2018-05-05T02:02:09.651Z,101452.80
2018-05-05T02:03:12.142Z,101454.37
2018-05-05T02:04:15.552Z,101454.34
2018-05-05T02:05:18.060Z,101452.38
2018-05-05T02:06:20.624Z,101451.75
2018-05-05T02:07:23.187Z,101452.10
2018-05-05T02:08:25.677Z,101453.98
2018-05-05T02:09:28.142Z,101449.69
2018-05-05T02:10:30.610Z,101456.14
2018-05-05T02:11:33.087Z,101454.45
2018-05-05T02:12:35.611Z,101453.48
2018-05-05T02:13:38.082Z,101455.67
2018-05-05T02:14:40.579Z,101454.70
2018-05-05T02:15:43.073Z,101456.48
2018-05-05T02:16:45.572Z,101453.17
2018-05-05T02:17:48.146Z,101451.48
2018-05-05T02:18:50.653Z,101455.77
2018-05-05T02:19:53.144Z,101457.40
2018-05-05T02:20:55.632Z,101462.09
2018-05-05T02:21:58.120Z,101458.94
2018-05-05T02:23:00.606Z,101456.73
2018-05-05T02:24:03.100Z,101454.55
2018-05-05T02:25:05.606Z,101454.86
2018-05-05T02:26:08.111Z,101458.59
2018-05-05T02:27:10.591Z,101460.37
2018-05-05T02:28:13.159Z,101466.60
2018-05-05T02:29:15.665Z,101457.93
2018-05-05T02:30:18.171Z,101460.28
2018-05-05T02:31:20.679Z,101462.75
2018-05-05T02:32:23.183Z,101464.28
2018-05-05T02:33:25.750Z,101463.47
2018-05-05T02:34:28.305Z,101466.95
2018-05-05T02:35:30.778Z,101469.86
2018-05-05T02:36:33.283Z,101474.55
2018-05-05T02:37:35.786Z,101472.77
2018-05-05T02:38:38.308Z,101471.14
2018-05-05T02:39:40.787Z,101469.20
2018-05-05T02:40:43.258Z,101470.73
2018-05-05T02:41:45.726Z,101467.72
2018-05-05T02:42:48.204Z,101465.13
2018-05-05T02:43:50.687Z,101465.38
2018-05-05T02:44:53.180Z,101468.70
2018-05-05T02:45:55.669Z,101467.47
2018-05-05T02:46:58.173Z,101459.20
2018-05-05T02:48:00.661Z,101472.17
2018-05-05T02:49:03.151Z,101468.75
2018-05-05T02:50:05.643Z,101467.94
2018-05-05T02:51:08.109Z,101465.75
2018-05-05T02:52:10.603Z,101468.66
2018-05-05T02:53:13.074Z,101472.91
2018-05-05T02:54:15.600Z,101469.19
2018-05-05T02:55:18.118Z,101470.16
2018-05-05T02:56:20.612Z,101474.45
2018-05-05T02:57:23.110Z,101474.61
2018-05-05T02:58:25.597Z,101467.02
2018-05-05T02:59:28.116Z,101473.35
2018-05-05T03:00:30.591Z,101467.15
2018-05-05T03:01:33.085Z,101471.69
2018-05-05T03:02:35.572Z,101466.34
2018-05-05T03:03:38.152Z,101460.01
2018-05-05T03:04:40.716Z,101458.07
2018-05-05T03:05:43.273Z,101456.81
2018-05-05T03:06:45.761Z,101459.57
2018-05-05T03:07:48.267Z,101457.79
2018-05-05T03:08:50.735Z,101452.02
2018-05-05T03:09:53.288Z,101453.97
2018-05-05T03:10:55.792Z,101453.00
2018-05-05T03:11:58.284Z,101451.37
2018-05-05T03:13:00.776Z,101455.09
2018-05-05T03:14:03.264Z,101451.11
2018-05-05T03:15:05.751Z,101455.25
2018-05-05T03:16:08.251Z,101453.05
2018-05-05T03:17:10.756Z,101452.24
2018-05-05T03:18:13.235Z,101453.20
2018-05-05T03:19:15.737Z,101446.48
2018-05-05T03:20:18.253Z,101444.70
2018-05-05T03:21:20.755Z,101445.66
2018-05-05T03:22:23.235Z,101447.76
2018-05-05T03:23:25.723Z,101446.79
2018-05-05T03:24:28.224Z,101445.31
2018-05-05T03:25:30.728Z,101448.48
2018-05-05T03:26:33.216Z,101455.36
2018-05-05T03:27:35.806Z,101451.95
2018-05-05T03:28:38.286Z,101454.70
2018-05-05T03:29:40.755Z,101452.92
2018-05-05T03:30:43.242Z,101458.99
2018-05-05T03:31:45.725Z,101463.69
2018-05-05T03:32:48.235Z,101456.80
2018-05-05T03:33:50.724Z,101457.52
2018-05-05T03:34:53.211Z,101458.89
2018-05-05T03:35:55.716Z,101460.43
2018-05-05T03:36:58.201Z,101460.43
2018-05-05T03:38:00.703Z,101463.34
2018-05-05T03:39:03.206Z,101459.20
2018-05-05T03:40:05.698Z,101457.02
2018-05-05T03:41:08.191Z,101461.14
2018-05-05T03:42:10.680Z,101459.36
2018-05-05T03:43:13.184Z,101460.30
2018-05-05T03:44:15.687Z,101464.02
2018-05-05T03:45:18.172Z,101462.23
2018-05-05T03:46:20.666Z,101465.40
2018-05-05T03:47:23.152Z,101465.56
2018-05-05T03:48:25.626Z,101457.70
2018-05-05T03:49:28.113Z,101459.08
2018-05-05T03:50:30.615Z,101461.42
2018-05-05T03:51:33.139Z,101460.61
2018-05-05T03:52:35.634Z,101453.87
2018-05-05T03:53:38.120Z,101460.36
2018-05-05T03:54:40.608Z,101461.33
2018-05-05T03:55:43.083Z,101461.48
2018-05-05T03:56:45.578Z,101461.08
2018-05-05T03:57:48.102Z,101463.98
2018-05-05T03:59:02.528Z,101468.11
2018-05-05T04:00:16.911Z,101468.27
2018-05-05T04:01:31.173Z,101469.80
2018-05-05T04:02:45.564Z,101475.31
2018-05-05T04:03:48.049Z,101474.91
2018-05-05T04:06:39.456Z,101469.39
2018-05-05T04:07:41.946Z,101469.55
2018-05-05T04:08:44.434Z,101472.70
2018-05-05T04:09:46.955Z,101470.52
2018-05-05T04:10:49.422Z,101472.15
2018-05-05T04:11:51.909Z,101474.24
2018-05-05T04:12:54.410Z,101471.08
2018-05-05T04:13:56.912Z,101471.48
2018-05-05T04:14:59.411Z,101481.69
2018-05-05T04:16:01.923Z,101473.98
2018-05-05T04:17:04.423Z,101478.53
2018-05-05T04:18:06.930Z,101474.40
2018-05-05T04:19:09.402Z,101482.25
2018-05-05T04:20:11.890Z,101483.06
2018-05-05T04:21:14.376Z,101477.71
2018-05-05T04:22:16.863Z,101485.82
2018-05-05T04:23:19.350Z,101480.47
2018-05-05T04:24:21.820Z,101489.14
2018-05-05T04:25:24.320Z,101483.63
2018-05-05T04:26:26.792Z,101482.81
2018-05-05T04:27:29.283Z,101482.81
2018-05-05T04:28:31.775Z,101487.51
2018-05-05T04:29:34.293Z,101489.86
2018-05-05T04:30:36.795Z,101485.88
2018-05-05T04:31:39.307Z,101484.34
2018-05-05T04:32:41.813Z,101484.50
2018-05-05T04:33:44.302Z,101484.66
2018-05-05T04:34:46.795Z,101484.50
2018-05-05T04:35:49.270Z,101478.17
2018-05-05T04:36:51.737Z,101483.84
2018-05-05T04:37:54.228Z,101489.75
2018-05-05T04:38:56.751Z,101488.38
2018-05-05T04:39:59.221Z,101492.10
2018-05-05T04:41:01.723Z,101486.03
2018-05-05T04:42:04.209Z,101493.07
2018-05-05T04:43:06.699Z,101491.03
2018-05-05T04:44:09.204Z,101495.73
2018-05-05T04:45:11.677Z,101493.94
2018-05-05T04:46:14.187Z,101499.98
2018-05-05T04:47:16.787Z,101496.00
2018-05-05T04:48:19.277Z,101494.78
2018-05-05T04:49:21.781Z,101499.88
2018-05-05T04:50:24.255Z,101501.82
2018-05-05T04:51:26.809Z,101495.19
2018-05-05T04:52:29.268Z,101506.20
2018-05-05T04:53:31.775Z,101503.05
2018-05-05T04:54:34.277Z,101501.52
2018-05-05T04:55:36.779Z,101503.58
2018-05-05T04:56:39.264Z,101502.15
2018-05-05T04:57:41.748Z,101508.36
2018-05-05T04:58:44.256Z,101505.34
2018-05-05T04:59:46.771Z,101503.63
2018-05-05T05:00:49.246Z,101500.52
2018-05-05T05:01:51.752Z,101502.84
2018-05-05T05:02:54.250Z,101505.30
2018-05-05T05:03:56.732Z,101503.70
2018-05-05T05:04:59.219Z,101503.90
2018-05-05T05:06:01.745Z,101503.84
2018-05-05T05:07:04.242Z,101507.13
2018-05-05T05:08:06.741Z,101502.94
2018-05-05T05:09:09.211Z,101504.41
2018-05-05T05:10:11.740Z,101500.94
2018-05-05T05:11:14.231Z,101499.41
2018-05-05T05:12:16.721Z,101501.19
2018-05-05T05:13:19.249Z,101500.78
2018-05-05T05:14:21.819Z,101492.61
2018-05-05T05:15:24.306Z,101500.47
2018-05-05T05:16:26.803Z,101497.71
2018-05-05T05:17:29.293Z,101496.89
2018-05-05T05:18:31.797Z,101492.77
2018-05-05T05:19:34.297Z,101496.89
2018-05-05T05:20:36.835Z,101491.54
2018-05-05T05:21:39.323Z,101497.20
2018-05-05T05:22:41.808Z,101490.47
2018-05-05T05:23:44.304Z,101493.64
2018-05-05T05:24:46.797Z,101494.61
2018-05-05T05:25:49.309Z,101496.55
2018-05-05T05:26:51.800Z,101500.43
2018-05-05T05:27:54.348Z,101496.86
2018-05-05T05:28:56.817Z,101501.56
2018-05-05T05:29:59.291Z,101501.30
2018-05-05T05:31:01.783Z,101498.95
2018-05-05T05:32:04.271Z,101500.48
2018-05-05T05:33:06.757Z,101501.18
2018-05-05T05:34:09.265Z,101503.41
2018-05-05T05:35:11.741Z,101498.02
2018-05-05T05:36:14.251Z,101500.92
2018-05-05T05:37:16.725Z,101495.57
2018-05-05T05:38:19.198Z,101499.70
2018-05-05T05:39:21.722Z,101497.10
2018-05-05T05:40:24.192Z,101495.31
2018-05-05T05:41:26.696Z,101491.09
2018-05-05T05:42:29.185Z,101492.31
2018-05-05T05:43:31.756Z,101493.84
2018-05-05T05:44:34.320Z,101492.47
2018-05-05T05:45:37.043Z,101490.42
2018-05-05T05:46:39.585Z,101492.37
2018-05-05T05:47:42.032Z,101491.14
2018-05-05T05:48:44.535Z,101484.00
2018-05-05T05:49:47.021Z,101490.89
2018-05-05T05:50:49.504Z,101489.67
2018-05-05T05:51:51.994Z,101492.58
2018-05-05T05:52:54.569Z,101497.44
2018-05-05T05:53:57.064Z,101492.89
2018-05-05T05:54:59.548Z,101493.45
2018-05-05T05:56:02.069Z,101497.59
2018-05-05T05:57:04.561Z,101496.49
2018-05-05T05:58:07.089Z,101502.97
2018-05-05T05:59:09.647Z,101498.84
2018-05-05T06:00:12.133Z,101502.72
2018-05-05T06:01:14.610Z,101502.03
2018-05-05T06:02:17.106Z,101499.42
2018-05-05T06:03:19.578Z,101503.56
2018-05-05T06:04:22.068Z,101497.64
2018-05-05T06:05:24.572Z,101497.23
2018-05-05T06:06:27.091Z,101496.02
2018-05-05T06:07:29.605Z,101496.83
2018-05-05T06:08:32.111Z,101498.92
2018-05-05T06:09:34.590Z,101502.09
2018-05-05T06:10:37.080Z,101498.52
2018-05-05T06:11:39.566Z,101495.20
2018-05-05T06:12:42.069Z,101492.44
2018-05-05T06:13:44.557Z,101489.84
2018-05-05T06:14:47.044Z,101493.56
2018-05-05T06:15:49.518Z,101499.08
2018-05-05T06:16:51.986Z,101494.38
2018-05-05T06:17:54.500Z,101492.34
2018-05-05T06:18:56.976Z,101484.89
2018-05-05T06:19:59.442Z,101486.42
2018-05-05T06:21:01.929Z,101491.53
2018-05-05T06:22:04.404Z,101485.61
2018-05-05T06:23:06.890Z,101489.49
2018-05-05T06:24:09.376Z,101485.36
2018-05-05T06:25:11.844Z,101488.27
2018-05-05T06:26:14.332Z,101492.97
2018-05-05T06:27:16.821Z,101488.02
2018-05-05T06:28:19.363Z,101490.21
2018-05-05T06:29:21.833Z,101487.20
2018-05-05T06:30:24.327Z,101485.83
2018-05-05T06:31:26.827Z,101489.70
2018-05-05T06:32:29.332Z,101483.78
2018-05-05T06:33:31.830Z,101490.27
2018-05-05T06:34:34.324Z,101490.27
2018-05-05T06:35:36.844Z,101488.73
2018-05-05T06:36:39.322Z,101486.48
2018-05-05T06:37:41.823Z,101493.88
2018-05-05T06:38:44.310Z,101488.77
2018-05-05T06:39:46.781Z,101490.00
2018-05-05T06:40:49.342Z,101490.56
2018-05-05T06:41:51.847Z,101488.92
2018-05-05T06:42:54.334Z,101489.64
2018-05-05T06:43:56.860Z,101489.14
2018-05-05T06:44:59.349Z,101487.66
2018-05-05T06:46:01.815Z,101484.66
2018-05-05T06:47:04.322Z,101492.41
2018-05-05T06:48:06.808Z,101492.44
2018-05-05T06:49:09.329Z,101503.36
2018-05-05T06:50:11.813Z,101495.97
2018-05-05T06:51:14.288Z,101500.97
2018-05-05T06:52:16.769Z,101499.75
2018-05-05T06:53:19.256Z,101497.55
2018-05-05T06:54:21.778Z,101501.59
2018-05-05T06:55:24.310Z,101501.44
2018-05-05T06:56:26.869Z,101500.72
2018-05-05T06:57:29.428Z,101503.16
2018-05-05T06:58:31.992Z,101499.17
2018-05-05T06:59:34.550Z,101498.74
2018-05-05T07:00:37.046Z,101500.06
2018-05-05T07:01:39.570Z,101493.27
2018-05-05T07:02:42.129Z,101493.78
2018-05-05T07:03:44.686Z,101485.20
2018-05-05T07:04:47.191Z,101489.78
2018-05-05T07:05:49.704Z,101492.23
2018-05-05T07:06:52.197Z,101486.28
2018-05-05T07:07:54.681Z,101488.04
2018-05-05T07:08:57.216Z,101488.55
2018-05-05T07:09:59.692Z,101492.78
2018-05-05T07:11:02.181Z,101495.38
2018-05-05T07:12:04.658Z,101494.91
2018-05-05T07:13:07.147Z,101497.20
2018-05-05T07:14:09.712Z,101495.26
2018-05-05T07:15:12.224Z,101501.05
2018-05-05T07:16:14.800Z,101501.05
2018-05-05T07:17:17.383Z,101498.14
2018-05-05T07:18:19.818Z,101494.82
2018-05-05T07:19:22.481Z,101503.34
2018-05-05T07:20:25.138Z,101496.05
2018-05-05T07:21:27.645Z,101492.06
2018-05-05T07:22:30.156Z,101492.48
2018-05-05T07:23:32.661Z,101489.72
2018-05-05T07:24:35.286Z,101486.40
2018-05-05T07:25:37.835Z,101483.39
2018-05-05T07:26:40.302Z,101487.12
2018-05-05T07:27:42.800Z,101488.91
2018-05-05T07:28:45.501Z,101483.14
2018-05-05T07:29:48.179Z,101487.84
2018-05-05T07:30:50.743Z,101486.45
2018-05-05T07:31:53.245Z,101482.45
2018-05-05T07:32:55.867Z,101484.23
2018-05-05T07:33:58.375Z,101481.88
2018-05-05T07:35:00.864Z,101483.83
2018-05-05T07:36:03.464Z,101484.39
2018-05-05T07:37:05.997Z,101477.25
2018-05-05T07:38:08.562Z,101482.61
2018-05-05T07:39:11.561Z,101486.89
2018-05-05T07:40:14.304Z,101482.51
2018-05-05T07:41:16.930Z,101480.16
2018-05-05T07:42:19.727Z,101480.72
2018-05-05T07:43:22.379Z,101479.50
2018-05-05T07:44:24.872Z,101484.20
2018-05-05T07:45:27.498Z,101480.06
2018-05-05T07:46:30.111Z,101485.73
2018-05-05T07:47:32.626Z,101481.19
2018-05-05T07:48:35.141Z,101483.12
2018-05-05T07:49:37.651Z,101481.34
2018-05-05T07:50:40.144Z,101483.29
2018-05-05T07:51:42.687Z,101479.31
2018-05-05T07:52:45.232Z,101479.31
2018-05-05T07:53:47.735Z,101474.77
2018-05-05T07:54:50.206Z,101478.91
2018-05-05T07:55:52.697Z,101484.16
2018-05-05T07:56:55.253Z,101476.45
2018-05-05T07:57:57.755Z,101472.89
2018-05-05T07:59:00.227Z,101474.83
2018-05-05T08:00:02.738Z,101478.70
2018-05-05T08:01:05.285Z,101479.68
2018-05-05T08:02:07.774Z,101482.44
2018-05-05T08:03:10.306Z,101478.42
2018-05-05T08:04:12.869Z,101479.80
2018-05-05T08:05:15.535Z,101484.50
2018-05-05T08:06:18.293Z,101482.87
2018-05-05T08:07:20.930Z,101482.87
2018-05-05T08:08:23.822Z,101489.20
2018-05-05T08:09:26.387Z,101479.83
2018-05-05T08:10:28.895Z,101484.37
2018-05-05T08:11:31.541Z,101483.96
2018-05-05T08:12:34.066Z,101482.59
2018-05-05T08:13:36.553Z,101486.72
2018-05-05T08:14:39.017Z,101485.34
2018-05-05T08:15:41.531Z,101489.47
2018-05-05T08:16:44.215Z,101496.36
2018-05-05T08:17:46.738Z,101495.39
2018-05-05T08:18:49.237Z,101494.86
2018-05-05T08:19:51.726Z,101501.34
2018-05-05T08:20:54.212Z,101503.41
2018-05-05T08:21:56.715Z,101497.33
2018-05-05T08:22:59.363Z,101494.17
2018-05-05T08:24:01.842Z,101499.27
2018-05-05T08:25:05.278Z,101492.79
2018-05-05T08:26:07.754Z,101496.92
2018-05-05T08:27:10.245Z,101502.03
2018-05-05T08:28:12.748Z,101499.68
2018-05-05T08:29:15.239Z,101503.00
2018-05-05T08:30:17.743Z,101502.59
2018-05-05T08:31:20.238Z,101499.27
2018-05-05T08:32:22.744Z,101499.27
2018-05-05T08:33:25.400Z,101503.41
2018-05-05T08:34:27.893Z,101502.44
2018-05-05T08:35:30.377Z,101505.75
2018-05-05T08:36:32.877Z,101503.41
2018-05-05T08:37:35.510Z,101506.41
2018-05-05T08:38:38.066Z,101509.48
2018-05-05T08:39:40.556Z,101507.70
2018-05-05T08:40:43.086Z,101509.07
2018-05-05T08:41:45.647Z,101517.90
2018-05-05T08:42:48.160Z,101509.63
2018-05-05T08:43:50.674Z,101503.72
2018-05-05T08:44:53.164Z,101506.47
2018-05-05T08:45:55.660Z,101509.23
2018-05-05T08:46:58.149Z,101500.55
2018-05-05T08:48:00.637Z,101503.56
2018-05-05T08:49:03.132Z,101501.78
2018-05-05T08:50:05.644Z,101502.74
2018-05-05T08:51:08.133Z,101501.93
2018-05-05T08:52:10.612Z,101497.80
2018-05-05T08:53:13.119Z,101502.34
2018-05-05T08:54:15.641Z,101503.31
2018-05-05T08:55:18.152Z,101502.91
2018-05-05T08:56:20.662Z,101502.91
2018-05-05T08:57:23.141Z,101504.69
2018-05-05T08:58:25.615Z,101504.69
2018-05-05T08:59:28.135Z,101513.36
2018-05-05T09:00:30.629Z,101511.98
2018-05-05T09:01:33.162Z,101506.06
2018-05-05T09:02:35.648Z,101506.88
2018-05-05T09:03:38.184Z,101504.28
2018-05-05T09:04:40.708Z,101503.05
2018-05-05T09:05:43.178Z,101504.99
2018-05-05T09:06:45.661Z,101503.05
2018-05-05T09:07:48.129Z,101501.27
2018-05-05T09:08:50.597Z,101500.86
2018-05-05T09:09:53.112Z,101501.67
2018-05-05T09:10:55.617Z,101502.23
2018-05-05T09:11:58.124Z,101500.86
2018-05-05T09:13:00.635Z,101500.45
2018-05-05T09:14:03.130Z,101506.69
2018-05-05T09:15:05.643Z,101502.95
2018-05-05T09:16:08.118Z,101497.60
2018-05-05T09:17:10.609Z,101501.58
2018-05-05T09:18:13.082Z,101497.04
2018-05-05T09:19:15.565Z,101498.02
2018-05-05T09:20:18.094Z,101498.02
2018-05-05T09:21:20.607Z,101496.63
2018-05-05T09:22:23.083Z,101494.84
2018-05-05T09:23:25.592Z,101490.72
2018-05-05T09:24:28.088Z,101493.47
2018-05-05T09:25:30.595Z,101489.90
2018-05-05T09:26:33.112Z,101499.55
2018-05-05T09:27:35.625Z,101494.03
2018-05-05T09:28:38.124Z,101504.08
2018-05-05T09:29:40.599Z,101506.43
2018-05-05T09:30:43.087Z,101512.75
2018-05-05T09:31:45.588Z,101504.08
2018-05-05T09:32:48.119Z,101498.98
2018-05-05T09:33:50.672Z,101498.98
2018-05-05T09:34:53.241Z,101495.81
2018-05-05T09:35:55.753Z,101495.81
2018-05-05T09:36:58.241Z,101494.84
2018-05-05T09:38:00.713Z,101490.72
2018-05-05T09:39:03.182Z,101490.30
2018-05-05T09:40:05.692Z,101491.94
2018-05-05T09:41:08.201Z,101496.22
2018-05-05T09:42:10.682Z,101492.91
2018-05-05T09:43:13.183Z,101499.55
2018-05-05T09:44:15.684Z,101495.66
2018-05-05T09:45:18.349Z,101494.03
2018-05-05T09:46:21.196Z,101491.13
2018-05-05T09:47:23.715Z,101503.52
2018-05-05T09:48:26.225Z,101497.04
2018-05-05T09:49:28.709Z,101498.83
2018-05-05T09:50:31.193Z,101500.20
2018-05-05T09:51:33.696Z,101489.74
2018-05-05T09:52:36.252Z,101495.25
2018-05-05T09:53:38.812Z,101492.34
2018-05-05T09:54:41.329Z,101492.34
2018-05-05T09:55:43.817Z,101498.27
2018-05-05T09:56:46.303Z,101498.27
2018-05-05T09:57:48.783Z,101496.89
2018-05-05T09:58:51.292Z,101498.11
2018-05-05T09:59:53.789Z,101488.62
2018-05-05T10:00:56.298Z,101490.41
2018-05-05T10:01:58.816Z,101486.27
2018-05-05T10:03:01.319Z,101483.11
2018-05-05T10:04:03.856Z,101485.30
2018-05-05T10:05:06.345Z,101480.76
2018-05-05T10:06:08.848Z,101484.73
2018-05-05T10:07:11.353Z,101482.80
2018-05-05T10:08:13.859Z,101477.84
2018-05-05T10:09:16.334Z,101476.47
2018-05-05T10:10:18.831Z,101476.88
2018-05-05T10:11:21.339Z,101475.50
2018-05-05T10:12:23.848Z,101477.29
2018-05-05T10:13:26.353Z,101476.47
2018-05-05T10:14:28.884Z,101473.31
2018-05-05T10:15:31.394Z,101479.08
2018-05-05T10:16:33.880Z,101478.10
2018-05-05T10:17:36.386Z,101479.48
2018-05-05T10:18:38.873Z,101477.13
2018-05-05T10:19:41.356Z,101469.84
2018-05-05T10:20:43.826Z,101474.37
2018-05-05T10:21:46.312Z,101473.00
2018-05-05T10:22:48.817Z,101469.27
2018-05-05T10:23:51.354Z,101468.71
2018-05-05T10:24:53.796Z,101464.58
2018-05-05T10:25:56.266Z,101467.34
2018-05-05T10:26:58.734Z,101468.71
2018-05-05T10:28:01.253Z,101462.95
2018-05-05T10:29:03.761Z,101468.87
2018-05-05T10:30:06.264Z,101465.55
2018-05-05T10:31:08.739Z,101465.55
2018-05-05T10:32:11.243Z,101459.63
2018-05-05T10:33:13.968Z,101464.17
2018-05-05T10:34:16.500Z,101464.42
2018-05-05T10:35:19.063Z,101460.45
2018-05-05T10:36:21.553Z,101461.26
2018-05-05T10:37:24.080Z,101472.28
2018-05-05T10:38:26.585Z,101462.64
2018-05-05T10:39:29.108Z,101462.08
2018-05-05T10:40:31.634Z,101461.11
2018-05-05T10:41:34.117Z,101466.77
2018-05-05T10:42:36.619Z,101471.31
2018-05-05T10:43:39.120Z,101463.86
2018-05-05T10:44:41.664Z,101460.13
2018-05-05T10:45:44.126Z,101458.50
2018-05-05T10:46:46.616Z,101456.00
2018-05-05T10:47:50.326Z,101455.59
2018-05-05T10:48:52.948Z,101463.30
2018-05-05T10:49:55.481Z,101461.52
2018-05-05T10:50:57.964Z,101453.66
2018-05-05T10:52:00.461Z,101450.90
2018-05-05T10:53:02.968Z,101455.88
2018-05-05T10:54:05.495Z,101450.49
2018-05-05T10:55:07.988Z,101453.66
2018-05-05T10:56:10.480Z,101450.49
2018-05-05T10:57:12.996Z,101439.47
2018-05-05T10:58:15.532Z,101439.06
2018-05-05T10:59:18.097Z,101438.09
2018-05-05T11:00:20.585Z,101440.84
2018-05-05T11:01:23.176Z,101440.03
2018-05-05T11:02:25.636Z,101436.31
2018-05-05T11:03:28.194Z,101440.03
2018-05-05T11:04:30.744Z,101432.58
2018-05-05T11:05:33.246Z,101429.83
2018-05-05T11:06:35.764Z,101432.73
2018-05-05T11:07:38.279Z,101431.77
2018-05-05T11:08:40.787Z,101429.02
2018-05-05T11:09:43.290Z,101433.14
2018-05-05T11:10:45.868Z,101432.33
2018-05-05T11:11:49.549Z,101427.07
2018-05-05T11:12:52.578Z,101422.81
2018-05-05T11:13:56.976Z,101426.79
2018-05-05T11:14:59.627Z,101425.00
2018-05-05T11:16:02.185Z,101425.00
2018-05-05T11:17:04.658Z,101423.06
2018-05-05T11:18:07.130Z,101424.28
2018-05-05T11:19:09.850Z,101417.40
2018-05-05T11:20:12.342Z,101420.00
2018-05-05T11:21:14.825Z,101411.73
2018-05-05T11:22:17.350Z,101418.49
2018-05-05T11:23:20.049Z,101417.37
2018-05-05T11:24:22.583Z,101419.00
2018-05-05T11:25:25.104Z,101418.59
2018-05-05T11:26:27.661Z,101419.41
2018-05-05T11:27:30.144Z,101412.36
2018-05-05T11:28:32.641Z,101418.69
2018-05-05T11:29:35.127Z,101411.23
2018-05-05T11:30:37.632Z,101415.36
2018-05-05T11:31:40.124Z,101416.18
2018-05-05T11:32:42.610Z,101411.64
2018-05-05T11:33:45.082Z,101412.45
2018-05-05T11:34:47.591Z,101410.92
2018-05-05T11:35:50.124Z,101410.52
2018-05-05T11:36:52.622Z,101407.76
2018-05-05T11:37:55.098Z,101407.76
2018-05-05T11:38:57.566Z,101416.43
2018-05-05T11:40:00.071Z,101416.02
2018-05-05T11:41:02.576Z,101411.73
2018-05-05T11:42:05.047Z,101408.98
2018-05-05T11:43:07.514Z,101403.47
2018-05-05T11:44:10.000Z,101408.16
2018-05-05T11:45:12.494Z,101407.60
2018-05-05T11:46:15.005Z,101405.66
2018-05-05T11:47:17.509Z,101406.22
2018-05-05T11:48:19.983Z,101407.60
2018-05-05T11:49:22.497Z,101400.87
2018-05-05T11:50:25.004Z,101405.25
2018-05-05T11:51:27.587Z,101411.58
2018-05-05T11:52:30.149Z,101409.39
2018-05-05T11:53:32.711Z,101402.50
2018-05-05T11:54:35.270Z,101404.84
2018-05-05T11:55:37.827Z,101405.81